sensor_id;sensor_type;location;lat;lon;timestamp;temperature;humidity
16964;DHT22;8598;50.508;10.436;2023-02-21T00:02:20;8.80;99.90
16964;DHT22;8598;50.508;10.436;2023-02-21T00:05:04;8.70;99.90
16964;DHT22;8598;50.508;10.436;2023-02-21T00:07:50;8.70;99.90
16964;DHT22;8598;50.508;10.436;2023-02-21T00:10:34;8.60;99.90
16964;DHT22;8598;50.508;10.436;2023-02-21T00:13:18;8.50;99.90
16964;DHT22;8598;50.508;10.436;2023-02-21T00:16:02;8.40;99.90
16964;DHT22;8598;50.508;10.436;2023-02-21T00:18:46;8.30;99.90
16964;DHT22;8598;50.508;10.436;2023-02-21T00:21:30;8.30;99.90
16964;DHT22;8598;50.508;10.436;2023-02-21T00:24:17;8.30;99.90
16964;DHT22;8598;50.508;10.436;2023-02-21T00:27:02;8.20;99.90
16964;DHT22;8598;50.508;10.436;2023-02-21T00:29:47;8.40;99.90
16964;DHT22;8598;50.508;10.436;2023-02-21T00:32:31;8.30;99.90
16964;DHT22;8598;50.508;10.436;2023-02-21T00:35:16;8.30;99.90
16964;DHT22;8598;50.508;10.436;2023-02-21T00:38:00;8.30;99.90
16964;DHT22;8598;50.508;10.436;2023-02-21T00:40:46;8.20;99.90
16964;DHT22;8598;50.508;10.436;2023-02-21T00:43:31;8.20;99.90
16964;DHT22;8598;50.508;10.436;2023-02-21T00:46:16;8.10;99.90
16964;DHT22;8598;50.508;10.436;2023-02-21T00:49:01;8.10;99.90
16964;DHT22;8598;50.508;10.436;2023-02-21T00:51:45;8.10;99.90
16964;DHT22;8598;50.508;10.436;2023-02-21T00:54:30;8.10;99.90
16964;DHT22;8598;50.508;10.436;2023-02-21T00:57:15;8.10;99.90
16964;DHT22;8598;50.508;10.436;2023-02-21T00:59:59;8.10;99.90
16964;DHT22;8598;50.508;10.436;2023-02-21T01:02:43;8.20;99.90
16964;DHT22;8598;50.508;10.436;2023-02-21T01:05:28;8.20;99.90
16964;DHT22;8598;50.508;10.436;2023-02-21T01:08:12;8.20;99.90
16964;DHT22;8598;50.508;10.436;2023-02-21T01:10:57;8.20;99.90
16964;DHT22;8598;50.508;10.436;2023-02-21T01:13:43;8.30;99.90
16964;DHT22;8598;50.508;10.436;2023-02-21T01:16:27;8.40;99.90
16964;DHT22;8598;50.508;10.436;2023-02-21T01:19:12;8.50;99.90
16964;DHT22;8598;50.508;10.436;2023-02-21T01:21:56;8.50;99.90
16964;DHT22;8598;50.508;10.436;2023-02-21T01:24:40;8.50;99.90
16964;DHT22;8598;50.508;10.436;2023-02-21T01:27:24;8.40;99.90
16964;DHT22;8598;50.508;10.436;2023-02-21T01:30:10;8.40;99.90
16964;DHT22;8598;50.508;10.436;2023-02-21T01:32:54;8.50;99.90
16964;DHT22;8598;50.508;10.436;2023-02-21T01:35:39;8.40;99.90
16964;DHT22;8598;50.508;10.436;2023-02-21T01:38:23;8.40;99.90
16964;DHT22;8598;50.508;10.436;2023-02-21T01:41:07;8.30;99.90
16964;DHT22;8598;50.508;10.436;2023-02-21T01:43:59;8.40;99.90
16964;DHT22;8598;50.508;10.436;2023-02-21T01:46:45;8.30;99.90
16964;DHT22;8598;50.508;10.436;2023-02-21T01:49:30;8.20;99.90
16964;DHT22;8598;50.508;10.436;2023-02-21T01:52:16;8.20;99.90
16964;DHT22;8598;50.508;10.436;2023-02-21T01:55:01;8.10;99.90
16964;DHT22;8598;50.508;10.436;2023-02-21T01:57:47;8.00;99.90
16964;DHT22;8598;50.508;10.436;2023-02-21T02:00:32;8.00;99.90
16964;DHT22;8598;50.508;10.436;2023-02-21T02:03:19;8.00;99.90
16964;DHT22;8598;50.508;10.436;2023-02-21T02:06:06;7.90;99.90
16964;DHT22;8598;50.508;10.436;2023-02-21T02:08:51;7.90;99.90
16964;DHT22;8598;50.508;10.436;2023-02-21T02:11:45;7.90;99.90
16964;DHT22;8598;50.508;10.436;2023-02-21T02:14:47;7.90;99.90
16964;DHT22;8598;50.508;10.436;2023-02-21T02:17:19;7.90;99.90
16964;DHT22;8598;50.508;10.436;2023-02-21T02:23:37;8.00;99.90
16964;DHT22;8598;50.508;10.436;2023-02-21T02:29:17;8.10;99.90
16964;DHT22;8598;50.508;10.436;2023-02-21T02:32:04;8.10;99.90
16964;DHT22;8598;50.508;10.436;2023-02-21T02:34:46;8.10;99.90
16964;DHT22;8598;50.508;10.436;2023-02-21T02:37:20;8.10;99.90
16964;DHT22;8598;50.508;10.436;2023-02-21T02:39:54;8.10;99.90
16964;DHT22;8598;50.508;10.436;2023-02-21T02:42:30;8.10;99.90
16964;DHT22;8598;50.508;10.436;2023-02-21T02:45:02;8.10;99.90
16964;DHT22;8598;50.508;10.436;2023-02-21T02:47:35;8.20;99.90
16964;DHT22;8598;50.508;10.436;2023-02-21T02:50:05;8.20;99.90
16964;DHT22;8598;50.508;10.436;2023-02-21T02:52:32;8.20;99.90
16964;DHT22;8598;50.508;10.436;2023-02-21T02:55:01;8.20;99.90
16964;DHT22;8598;50.508;10.436;2023-02-21T02:57:30;8.10;99.90
16964;DHT22;8598;50.508;10.436;2023-02-21T03:00:04;8.10;99.90
16964;DHT22;8598;50.508;10.436;2023-02-21T03:02:44;8.10;99.90
16964;DHT22;8598;50.508;10.436;2023-02-21T03:05:35;8.00;99.90
16964;DHT22;8598;50.508;10.436;2023-02-21T03:08:13;8.00;99.90
16964;DHT22;8598;50.508;10.436;2023-02-21T03:10:47;7.90;99.90
16964;DHT22;8598;50.508;10.436;2023-02-21T03:13:17;7.90;99.90
16964;DHT22;8598;50.508;10.436;2023-02-21T03:15:50;8.00;99.90
16964;DHT22;8598;50.508;10.436;2023-02-21T03:18:23;8.00;99.90
16964;DHT22;8598;50.508;10.436;2023-02-21T03:20:55;8.00;99.90
16964;DHT22;8598;50.508;10.436;2023-02-21T03:23:24;8.00;99.90
16964;DHT22;8598;50.508;10.436;2023-02-21T03:25:52;8.00;99.90
16964;DHT22;8598;50.508;10.436;2023-02-21T03:28:20;7.90;99.90
16964;DHT22;8598;50.508;10.436;2023-02-21T03:30:48;7.90;99.90
16964;DHT22;8598;50.508;10.436;2023-02-21T03:33:16;7.80;99.90
16964;DHT22;8598;50.508;10.436;2023-02-21T03:35:43;7.80;99.90
16964;DHT22;8598;50.508;10.436;2023-02-21T03:38:11;7.80;99.90
16964;DHT22;8598;50.508;10.436;2023-02-21T03:40:37;7.80;99.90
16964;DHT22;8598;50.508;10.436;2023-02-21T03:43:05;7.80;99.90
16964;DHT22;8598;50.508;10.436;2023-02-21T03:45:32;7.80;99.90
16964;DHT22;8598;50.508;10.436;2023-02-21T03:47:59;7.80;99.90
16964;DHT22;8598;50.508;10.436;2023-02-21T03:50:25;7.80;99.90
16964;DHT22;8598;50.508;10.436;2023-02-21T03:52:52;7.80;99.90
16964;DHT22;8598;50.508;10.436;2023-02-21T03:55:20;7.80;99.90
16964;DHT22;8598;50.508;10.436;2023-02-21T03:57:47;7.80;99.90
16964;DHT22;8598;50.508;10.436;2023-02-21T04:00:14;7.80;99.90
16964;DHT22;8598;50.508;10.436;2023-02-21T04:02:41;7.80;99.90
16964;DHT22;8598;50.508;10.436;2023-02-21T04:05:07;7.80;99.90
16964;DHT22;8598;50.508;10.436;2023-02-21T04:07:34;7.80;99.90
16964;DHT22;8598;50.508;10.436;2023-02-21T04:10:00;7.70;99.90
16964;DHT22;8598;50.508;10.436;2023-02-21T04:12:29;7.70;99.90
16964;DHT22;8598;50.508;10.436;2023-02-21T04:14:55;7.70;99.90
16964;DHT22;8598;50.508;10.436;2023-02-21T04:17:23;7.70;99.90
16964;DHT22;8598;50.508;10.436;2023-02-21T04:19:50;7.70;99.90
16964;DHT22;8598;50.508;10.436;2023-02-21T04:22:16;7.70;99.90
16964;DHT22;8598;50.508;10.436;2023-02-21T04:24:43;7.70;99.90
16964;DHT22;8598;50.508;10.436;2023-02-21T04:27:12;7.60;99.90
16964;DHT22;8598;50.508;10.436;2023-02-21T04:29:40;7.60;99.90
16964;DHT22;8598;50.508;10.436;2023-02-21T04:32:08;7.60;99.90
16964;DHT22;8598;50.508;10.436;2023-02-21T04:34:35;7.60;99.90
16964;DHT22;8598;50.508;10.436;2023-02-21T04:37:01;7.60;99.90
16964;DHT22;8598;50.508;10.436;2023-02-21T04:39:28;7.60;99.90
16964;DHT22;8598;50.508;10.436;2023-02-21T04:41:54;7.60;99.90
16964;DHT22;8598;50.508;10.436;2023-02-21T04:44:21;7.50;99.90
16964;DHT22;8598;50.508;10.436;2023-02-21T04:46:49;7.50;99.90
16964;DHT22;8598;50.508;10.436;2023-02-21T04:49:16;7.50;99.90
16964;DHT22;8598;50.508;10.436;2023-02-21T04:51:43;7.50;99.90
16964;DHT22;8598;50.508;10.436;2023-02-21T04:54:09;7.40;99.90
16964;DHT22;8598;50.508;10.436;2023-02-21T04:56:36;7.40;99.90
16964;DHT22;8598;50.508;10.436;2023-02-21T04:59:04;7.40;99.90
16964;DHT22;8598;50.508;10.436;2023-02-21T05:01:30;7.40;99.90
16964;DHT22;8598;50.508;10.436;2023-02-21T05:03:59;7.50;99.90
16964;DHT22;8598;50.508;10.436;2023-02-21T05:06:26;7.50;99.90
16964;DHT22;8598;50.508;10.436;2023-02-21T05:08:53;7.50;99.90
16964;DHT22;8598;50.508;10.436;2023-02-21T05:11:20;7.60;99.90
16964;DHT22;8598;50.508;10.436;2023-02-21T05:13:47;7.60;99.90
16964;DHT22;8598;50.508;10.436;2023-02-21T05:16:15;7.60;99.90
16964;DHT22;8598;50.508;10.436;2023-02-21T05:18:42;7.60;99.90
16964;DHT22;8598;50.508;10.436;2023-02-21T05:21:10;7.60;99.90
16964;DHT22;8598;50.508;10.436;2023-02-21T05:23:39;7.60;99.90
16964;DHT22;8598;50.508;10.436;2023-02-21T05:26:09;7.60;99.90
16964;DHT22;8598;50.508;10.436;2023-02-21T05:28:37;7.70;99.90
16964;DHT22;8598;50.508;10.436;2023-02-21T05:31:04;7.60;99.90
16964;DHT22;8598;50.508;10.436;2023-02-21T05:33:31;7.70;99.90
16964;DHT22;8598;50.508;10.436;2023-02-21T05:35:58;7.70;99.90
16964;DHT22;8598;50.508;10.436;2023-02-21T05:38:26;7.80;99.90
16964;DHT22;8598;50.508;10.436;2023-02-21T05:40:53;7.70;99.90
16964;DHT22;8598;50.508;10.436;2023-02-21T05:43:20;8.00;99.90
16964;DHT22;8598;50.508;10.436;2023-02-21T05:45:47;8.00;99.90
16964;DHT22;8598;50.508;10.436;2023-02-21T05:48:13;8.00;99.90
16964;DHT22;8598;50.508;10.436;2023-02-21T05:50:40;7.90;99.90
16964;DHT22;8598;50.508;10.436;2023-02-21T05:53:08;8.00;99.90
16964;DHT22;8598;50.508;10.436;2023-02-21T05:55:36;7.90;99.90
16964;DHT22;8598;50.508;10.436;2023-02-21T05:58:03;7.90;99.90
16964;DHT22;8598;50.508;10.436;2023-02-21T06:00:30;7.90;99.90
16964;DHT22;8598;50.508;10.436;2023-02-21T06:02:56;7.80;99.90
16964;DHT22;8598;50.508;10.436;2023-02-21T06:05:24;7.80;99.90
16964;DHT22;8598;50.508;10.436;2023-02-21T06:07:51;7.70;99.90
16964;DHT22;8598;50.508;10.436;2023-02-21T06:10:18;7.60;99.90
16964;DHT22;8598;50.508;10.436;2023-02-21T06:12:46;7.50;99.90
16964;DHT22;8598;50.508;10.436;2023-02-21T06:15:13;7.50;99.90
16964;DHT22;8598;50.508;10.436;2023-02-21T06:17:40;7.40;99.90
16964;DHT22;8598;50.508;10.436;2023-02-21T06:20:09;7.40;99.90
16964;DHT22;8598;50.508;10.436;2023-02-21T06:22:36;7.30;99.90
16964;DHT22;8598;50.508;10.436;2023-02-21T06:25:03;7.20;99.90
16964;DHT22;8598;50.508;10.436;2023-02-21T06:27:30;7.20;99.90
16964;DHT22;8598;50.508;10.436;2023-02-21T06:29:58;7.10;99.90
16964;DHT22;8598;50.508;10.436;2023-02-21T06:32:24;7.00;99.90
16964;DHT22;8598;50.508;10.436;2023-02-21T06:34:52;6.90;99.90
16964;DHT22;8598;50.508;10.436;2023-02-21T06:37:18;6.70;99.90
16964;DHT22;8598;50.508;10.436;2023-02-21T06:39:45;6.60;99.90
16964;DHT22;8598;50.508;10.436;2023-02-21T06:42:12;6.60;99.90
16964;DHT22;8598;50.508;10.436;2023-02-21T06:44:42;6.50;99.90
16964;DHT22;8598;50.508;10.436;2023-02-21T06:47:10;6.50;99.90
16964;DHT22;8598;50.508;10.436;2023-02-21T06:49:37;6.50;99.90
16964;DHT22;8598;50.508;10.436;2023-02-21T06:52:04;6.50;99.90
16964;DHT22;8598;50.508;10.436;2023-02-21T06:54:31;6.60;99.90
16964;DHT22;8598;50.508;10.436;2023-02-21T06:56:57;6.60;99.90
16964;DHT22;8598;50.508;10.436;2023-02-21T06:59:26;6.70;99.90
16964;DHT22;8598;50.508;10.436;2023-02-21T07:01:52;6.70;99.90
16964;DHT22;8598;50.508;10.436;2023-02-21T07:04:21;6.80;99.90
16964;DHT22;8598;50.508;10.436;2023-02-21T07:06:47;6.80;99.90
16964;DHT22;8598;50.508;10.436;2023-02-21T07:09:14;6.90;99.90
16964;DHT22;8598;50.508;10.436;2023-02-21T07:11:41;6.90;99.90
16964;DHT22;8598;50.508;10.436;2023-02-21T07:14:09;6.90;99.90
16964;DHT22;8598;50.508;10.436;2023-02-21T07:16:35;6.90;99.90
16964;DHT22;8598;50.508;10.436;2023-02-21T07:19:02;7.00;99.90
16964;DHT22;8598;50.508;10.436;2023-02-21T07:21:30;7.00;99.90
16964;DHT22;8598;50.508;10.436;2023-02-21T07:23:57;7.00;99.90
16964;DHT22;8598;50.508;10.436;2023-02-21T07:26:24;7.00;99.90
16964;DHT22;8598;50.508;10.436;2023-02-21T07:28:50;7.10;99.90
16964;DHT22;8598;50.508;10.436;2023-02-21T07:31:17;7.20;99.90
16964;DHT22;8598;50.508;10.436;2023-02-21T07:33:44;7.20;99.90
16964;DHT22;8598;50.508;10.436;2023-02-21T07:36:11;7.20;99.90
16964;DHT22;8598;50.508;10.436;2023-02-21T07:38:39;7.30;99.90
16964;DHT22;8598;50.508;10.436;2023-02-21T07:41:05;7.30;99.90
16964;DHT22;8598;50.508;10.436;2023-02-21T07:43:32;7.40;99.90
16964;DHT22;8598;50.508;10.436;2023-02-21T07:45:59;7.40;99.90
16964;DHT22;8598;50.508;10.436;2023-02-21T07:48:26;7.40;99.90
16964;DHT22;8598;50.508;10.436;2023-02-21T07:50:52;7.50;99.90
16964;DHT22;8598;50.508;10.436;2023-02-21T07:53:19;7.50;99.90
16964;DHT22;8598;50.508;10.436;2023-02-21T07:55:47;7.60;99.90
16964;DHT22;8598;50.508;10.436;2023-02-21T07:58:14;7.60;99.90
16964;DHT22;8598;50.508;10.436;2023-02-21T08:00:40;7.60;99.90
16964;DHT22;8598;50.508;10.436;2023-02-21T08:03:09;7.60;99.90
16964;DHT22;8598;50.508;10.436;2023-02-21T08:05:37;7.60;99.90
16964;DHT22;8598;50.508;10.436;2023-02-21T08:08:06;7.70;99.90
16964;DHT22;8598;50.508;10.436;2023-02-21T08:10:32;7.80;99.90
16964;DHT22;8598;50.508;10.436;2023-02-21T08:13:00;7.90;99.90
16964;DHT22;8598;50.508;10.436;2023-02-21T08:15:27;8.30;99.90
16964;DHT22;8598;50.508;10.436;2023-02-21T08:17:53;7.90;99.90
16964;DHT22;8598;50.508;10.436;2023-02-21T08:20:20;7.90;99.90
16964;DHT22;8598;50.508;10.436;2023-02-21T08:22:47;8.00;99.90
16964;DHT22;8598;50.508;10.436;2023-02-21T08:25:14;8.10;99.90
16964;DHT22;8598;50.508;10.436;2023-02-21T08:27:42;8.10;99.90
16964;DHT22;8598;50.508;10.436;2023-02-21T08:30:12;8.10;99.90
16964;DHT22;8598;50.508;10.436;2023-02-21T08:32:39;8.20;99.90
16964;DHT22;8598;50.508;10.436;2023-02-21T08:35:06;8.40;99.90
16964;DHT22;8598;50.508;10.436;2023-02-21T08:37:33;8.50;99.90
16964;DHT22;8598;50.508;10.436;2023-02-21T08:40:02;8.60;99.90
16964;DHT22;8598;50.508;10.436;2023-02-21T08:42:30;8.70;99.90
16964;DHT22;8598;50.508;10.436;2023-02-21T08:44:56;8.80;99.90
16964;DHT22;8598;50.508;10.436;2023-02-21T08:47:24;8.90;99.90
16964;DHT22;8598;50.508;10.436;2023-02-21T08:49:51;9.00;99.90
16964;DHT22;8598;50.508;10.436;2023-02-21T08:52:18;9.00;99.90
16964;DHT22;8598;50.508;10.436;2023-02-21T08:54:46;8.90;99.90
16964;DHT22;8598;50.508;10.436;2023-02-21T08:57:13;8.90;99.90
16964;DHT22;8598;50.508;10.436;2023-02-21T08:59:40;8.90;99.90
16964;DHT22;8598;50.508;10.436;2023-02-21T09:02:14;8.90;99.90
16964;DHT22;8598;50.508;10.436;2023-02-21T09:04:42;8.90;99.90
16964;DHT22;8598;50.508;10.436;2023-02-21T09:07:11;8.80;99.90
16964;DHT22;8598;50.508;10.436;2023-02-21T09:09:38;8.80;99.90
16964;DHT22;8598;50.508;10.436;2023-02-21T09:12:05;8.80;99.90
16964;DHT22;8598;50.508;10.436;2023-02-21T09:14:33;8.90;99.90
16964;DHT22;8598;50.508;10.436;2023-02-21T09:17:00;8.80;99.90
16964;DHT22;8598;50.508;10.436;2023-02-21T09:19:26;8.90;99.90
16964;DHT22;8598;50.508;10.436;2023-02-21T09:21:54;8.80;99.90
16964;DHT22;8598;50.508;10.436;2023-02-21T09:24:21;8.80;99.90
16964;DHT22;8598;50.508;10.436;2023-02-21T09:26:49;8.80;99.90
16964;DHT22;8598;50.508;10.436;2023-02-21T09:29:19;8.90;99.90
16964;DHT22;8598;50.508;10.436;2023-02-21T09:31:45;8.90;99.90
16964;DHT22;8598;50.508;10.436;2023-02-21T09:34:12;9.00;99.90
16964;DHT22;8598;50.508;10.436;2023-02-21T09:36:38;8.90;99.90
16964;DHT22;8598;50.508;10.436;2023-02-21T09:39:07;9.00;99.90
16964;DHT22;8598;50.508;10.436;2023-02-21T09:41:34;9.10;99.90
16964;DHT22;8598;50.508;10.436;2023-02-21T09:44:02;9.00;99.90
16964;DHT22;8598;50.508;10.436;2023-02-21T09:46:33;9.00;99.90
16964;DHT22;8598;50.508;10.436;2023-02-21T09:49:02;9.00;99.90
16964;DHT22;8598;50.508;10.436;2023-02-21T09:51:31;9.00;99.90
16964;DHT22;8598;50.508;10.436;2023-02-21T09:53:59;9.00;99.90
16964;DHT22;8598;50.508;10.436;2023-02-21T09:56:29;9.10;99.90
16964;DHT22;8598;50.508;10.436;2023-02-21T09:58:58;9.20;99.90
16964;DHT22;8598;50.508;10.436;2023-02-21T10:01:46;9.30;99.90
16964;DHT22;8598;50.508;10.436;2023-02-21T10:04:21;9.40;99.90
16964;DHT22;8598;50.508;10.436;2023-02-21T10:06:57;9.50;99.90
16964;DHT22;8598;50.508;10.436;2023-02-21T10:09:32;9.70;99.90
16964;DHT22;8598;50.508;10.436;2023-02-21T10:12:08;9.80;99.90
16964;DHT22;8598;50.508;10.436;2023-02-21T10:14:46;9.80;99.90
16964;DHT22;8598;50.508;10.436;2023-02-21T10:17:22;9.80;99.90
16964;DHT22;8598;50.508;10.436;2023-02-21T10:19:54;10.00;99.90
16964;DHT22;8598;50.508;10.436;2023-02-21T10:22:22;10.10;99.90
16964;DHT22;8598;50.508;10.436;2023-02-21T10:24:50;10.30;99.90
16964;DHT22;8598;50.508;10.436;2023-02-21T10:27:20;10.20;99.90
16964;DHT22;8598;50.508;10.436;2023-02-21T10:29:50;10.20;99.90
16964;DHT22;8598;50.508;10.436;2023-02-21T10:32:20;10.20;99.90
16964;DHT22;8598;50.508;10.436;2023-02-21T10:34:47;10.30;99.90
16964;DHT22;8598;50.508;10.436;2023-02-21T10:37:27;10.50;99.90
16964;DHT22;8598;50.508;10.436;2023-02-21T10:40:00;10.50;99.90
16964;DHT22;8598;50.508;10.436;2023-02-21T10:42:35;10.60;99.90
16964;DHT22;8598;50.508;10.436;2023-02-21T10:45:04;10.70;99.90
16964;DHT22;8598;50.508;10.436;2023-02-21T10:47:43;10.70;99.90
16964;DHT22;8598;50.508;10.436;2023-02-21T10:50:11;10.60;99.90
16964;DHT22;8598;50.508;10.436;2023-02-21T10:52:46;10.60;99.90
16964;DHT22;8598;50.508;10.436;2023-02-21T10:55:15;10.80;99.90
16964;DHT22;8598;50.508;10.436;2023-02-21T10:57:46;10.90;99.90
16964;DHT22;8598;50.508;10.436;2023-02-21T11:00:22;10.90;99.90
16964;DHT22;8598;50.508;10.436;2023-02-21T11:02:54;11.10;99.90
16964;DHT22;8598;50.508;10.436;2023-02-21T11:05:22;11.00;99.90
16964;DHT22;8598;50.508;10.436;2023-02-21T11:07:58;11.10;99.90
16964;DHT22;8598;50.508;10.436;2023-02-21T11:10:31;11.20;99.90
16964;DHT22;8598;50.508;10.436;2023-02-21T11:13:13;11.20;99.90
16964;DHT22;8598;50.508;10.436;2023-02-21T11:15:40;11.30;99.90
16964;DHT22;8598;50.508;10.436;2023-02-21T11:18:16;11.30;99.90
16964;DHT22;8598;50.508;10.436;2023-02-21T11:20:44;11.40;99.90
16964;DHT22;8598;50.508;10.436;2023-02-21T11:23:24;11.50;99.90
16964;DHT22;8598;50.508;10.436;2023-02-21T11:25:57;11.50;99.90
16964;DHT22;8598;50.508;10.436;2023-02-21T11:28:26;11.70;99.90
16964;DHT22;8598;50.508;10.436;2023-02-21T11:31:05;11.80;99.90
16964;DHT22;8598;50.508;10.436;2023-02-21T11:33:36;11.90;99.90
16964;DHT22;8598;50.508;10.436;2023-02-21T11:36:10;12.10;99.90
16964;DHT22;8598;50.508;10.436;2023-02-21T11:38:39;12.20;99.90
16964;DHT22;8598;50.508;10.436;2023-02-21T11:41:16;12.20;99.90
16964;DHT22;8598;50.508;10.436;2023-02-21T11:43:48;12.30;99.90
16964;DHT22;8598;50.508;10.436;2023-02-21T11:46:28;12.30;99.90
16964;DHT22;8598;50.508;10.436;2023-02-21T11:49:00;12.50;99.90
16964;DHT22;8598;50.508;10.436;2023-02-21T11:51:35;12.80;99.90
16964;DHT22;8598;50.508;10.436;2023-02-21T11:54:04;12.80;99.90
16964;DHT22;8598;50.508;10.436;2023-02-21T11:56:48;12.80;99.90
16964;DHT22;8598;50.508;10.436;2023-02-21T11:59:27;12.80;99.90
16964;DHT22;8598;50.508;10.436;2023-02-21T12:04:55;12.80;99.90
16964;DHT22;8598;50.508;10.436;2023-02-21T12:07:31;12.90;99.90
16964;DHT22;8598;50.508;10.436;2023-02-21T12:10:04;13.00;99.90
16964;DHT22;8598;50.508;10.436;2023-02-21T12:12:39;13.00;99.90
16964;DHT22;8598;50.508;10.436;2023-02-21T12:15:20;13.00;99.90
16964;DHT22;8598;50.508;10.436;2023-02-21T12:17:58;13.10;99.90
16964;DHT22;8598;50.508;10.436;2023-02-21T12:20:44;13.20;99.90
16964;DHT22;8598;50.508;10.436;2023-02-21T12:23:18;13.20;99.90
16964;DHT22;8598;50.508;10.436;2023-02-21T12:26:00;13.30;99.90
16964;DHT22;8598;50.508;10.436;2023-02-21T12:28:36;13.20;99.90
16964;DHT22;8598;50.508;10.436;2023-02-21T12:31:22;13.40;99.90
16964;DHT22;8598;50.508;10.436;2023-02-21T12:33:56;13.50;99.90
16964;DHT22;8598;50.508;10.436;2023-02-21T12:36:38;13.50;99.90
16964;DHT22;8598;50.508;10.436;2023-02-21T12:39:20;13.50;99.90
16964;DHT22;8598;50.508;10.436;2023-02-21T12:42:04;13.30;99.90
16964;DHT22;8598;50.508;10.436;2023-02-21T12:44:41;13.10;99.90
16964;DHT22;8598;50.508;10.436;2023-02-21T12:47:17;13.10;99.90
16964;DHT22;8598;50.508;10.436;2023-02-21T12:49:50;13.10;99.90
16964;DHT22;8598;50.508;10.436;2023-02-21T12:52:20;13.20;99.90
16964;DHT22;8598;50.508;10.436;2023-02-21T12:54:54;13.20;99.90
16964;DHT22;8598;50.508;10.436;2023-02-21T12:57:29;13.10;99.90
16964;DHT22;8598;50.508;10.436;2023-02-21T13:00:03;13.20;99.90
16964;DHT22;8598;50.508;10.436;2023-02-21T13:02:39;13.00;99.90
16964;DHT22;8598;50.508;10.436;2023-02-21T13:05:12;13.10;99.90
16964;DHT22;8598;50.508;10.436;2023-02-21T13:07:43;13.10;99.90
16964;DHT22;8598;50.508;10.436;2023-02-21T13:10:15;13.10;99.90
16964;DHT22;8598;50.508;10.436;2023-02-21T13:12:47;13.00;99.90
16964;DHT22;8598;50.508;10.436;2023-02-21T13:15:19;13.00;99.90
16964;DHT22;8598;50.508;10.436;2023-02-21T13:17:54;13.10;99.90
16964;DHT22;8598;50.508;10.436;2023-02-21T13:20:23;13.20;99.90
16964;DHT22;8598;50.508;10.436;2023-02-21T13:26:11;13.20;99.90
16964;DHT22;8598;50.508;10.436;2023-02-21T13:28:42;13.40;99.90
16964;DHT22;8598;50.508;10.436;2023-02-21T13:31:17;13.50;99.90
16964;DHT22;8598;50.508;10.436;2023-02-21T13:33:48;13.50;99.90
16964;DHT22;8598;50.508;10.436;2023-02-21T13:36:21;13.50;99.90
16964;DHT22;8598;50.508;10.436;2023-02-21T13:38:58;13.20;99.90
16964;DHT22;8598;50.508;10.436;2023-02-21T13:41:28;13.10;99.90
16964;DHT22;8598;50.508;10.436;2023-02-21T13:43:56;13.10;99.90
16964;DHT22;8598;50.508;10.436;2023-02-21T13:49:46;12.90;99.90
16964;DHT22;8598;50.508;10.436;2023-02-21T13:52:34;12.80;99.90
16964;DHT22;8598;50.508;10.436;2023-02-21T13:55:24;12.80;99.90
16964;DHT22;8598;50.508;10.436;2023-02-21T14:07:43;12.80;99.90
16964;DHT22;8598;50.508;10.436;2023-02-21T14:10:28;12.90;99.90
16964;DHT22;8598;50.508;10.436;2023-02-21T14:12:58;12.90;99.90
16964;DHT22;8598;50.508;10.436;2023-02-21T14:15:37;12.80;99.90
16964;DHT22;8598;50.508;10.436;2023-02-21T14:18:06;12.80;99.90
16964;DHT22;8598;50.508;10.436;2023-02-21T14:20:40;12.70;99.90
16964;DHT22;8598;50.508;10.436;2023-02-21T14:23:14;12.70;99.90
16964;DHT22;8598;50.508;10.436;2023-02-21T14:25:53;12.80;99.90
16964;DHT22;8598;50.508;10.436;2023-02-21T14:28:49;12.70;99.90
16964;DHT22;8598;50.508;10.436;2023-02-21T14:31:45;12.70;99.90
16964;DHT22;8598;50.508;10.436;2023-02-21T14:34:13;12.70;99.90
16964;DHT22;8598;50.508;10.436;2023-02-21T14:36:41;12.70;99.90
16964;DHT22;8598;50.508;10.436;2023-02-21T14:39:09;12.80;99.90
16964;DHT22;8598;50.508;10.436;2023-02-21T14:41:49;12.80;99.90
16964;DHT22;8598;50.508;10.436;2023-02-21T14:44:26;12.90;99.90
16964;DHT22;8598;50.508;10.436;2023-02-21T14:47:12;13.00;99.90
16964;DHT22;8598;50.508;10.436;2023-02-21T14:50:10;13.10;99.90
16964;DHT22;8598;50.508;10.436;2023-02-21T14:52:52;13.00;99.90
16964;DHT22;8598;50.508;10.436;2023-02-21T14:59:22;13.20;99.90
16964;DHT22;8598;50.508;10.436;2023-02-21T15:01:57;13.10;99.90
16964;DHT22;8598;50.508;10.436;2023-02-21T15:04:32;13.10;99.90
16964;DHT22;8598;50.508;10.436;2023-02-21T15:07:09;12.90;99.90
16964;DHT22;8598;50.508;10.436;2023-02-21T15:09:40;12.90;99.90
16964;DHT22;8598;50.508;10.436;2023-02-21T15:12:13;12.80;99.90
16964;DHT22;8598;50.508;10.436;2023-02-21T15:14:46;12.80;99.90
16964;DHT22;8598;50.508;10.436;2023-02-21T15:17:17;12.70;99.90
16964;DHT22;8598;50.508;10.436;2023-02-21T15:19:45;12.70;99.90
16964;DHT22;8598;50.508;10.436;2023-02-21T15:22:19;12.60;99.90
16964;DHT22;8598;50.508;10.436;2023-02-21T15:25:12;12.60;99.90
16964;DHT22;8598;50.508;10.436;2023-02-21T15:28:04;12.70;99.90
16964;DHT22;8598;50.508;10.436;2023-02-21T15:30:33;12.60;99.90
16964;DHT22;8598;50.508;10.436;2023-02-21T15:33:05;12.60;99.90
16964;DHT22;8598;50.508;10.436;2023-02-21T15:35:35;12.50;99.90
16964;DHT22;8598;50.508;10.436;2023-02-21T15:38:04;12.50;99.90
16964;DHT22;8598;50.508;10.436;2023-02-21T15:40:31;12.60;99.90
16964;DHT22;8598;50.508;10.436;2023-02-21T15:43:00;12.60;99.90
16964;DHT22;8598;50.508;10.436;2023-02-21T15:45:30;12.60;99.90
16964;DHT22;8598;50.508;10.436;2023-02-21T15:47:58;12.60;99.90
16964;DHT22;8598;50.508;10.436;2023-02-21T15:50:30;12.50;99.90
16964;DHT22;8598;50.508;10.436;2023-02-21T15:53:10;12.50;99.90
16964;DHT22;8598;50.508;10.436;2023-02-21T15:55:37;12.50;99.90
16964;DHT22;8598;50.508;10.436;2023-02-21T15:58:13;12.50;99.90
16964;DHT22;8598;50.508;10.436;2023-02-21T16:00:41;12.40;99.90
16964;DHT22;8598;50.508;10.436;2023-02-21T16:03:30;12.40;99.90
16964;DHT22;8598;50.508;10.436;2023-02-21T16:06:16;12.30;99.90
16964;DHT22;8598;50.508;10.436;2023-02-21T16:08:52;12.30;99.90
16964;DHT22;8598;50.508;10.436;2023-02-21T16:11:23;12.20;99.90
16964;DHT22;8598;50.508;10.436;2023-02-21T16:13:51;12.10;99.90
16964;DHT22;8598;50.508;10.436;2023-02-21T16:16:18;12.00;99.90
16964;DHT22;8598;50.508;10.436;2023-02-21T16:18:45;12.00;99.90
16964;DHT22;8598;50.508;10.436;2023-02-21T16:21:22;11.90;99.90
16964;DHT22;8598;50.508;10.436;2023-02-21T16:23:48;11.90;99.90
16964;DHT22;8598;50.508;10.436;2023-02-21T16:26:21;11.90;99.90
16964;DHT22;8598;50.508;10.436;2023-02-21T16:28:53;11.80;99.90
16964;DHT22;8598;50.508;10.436;2023-02-21T16:31:27;11.80;99.90
16964;DHT22;8598;50.508;10.436;2023-02-21T16:33:54;11.70;99.90
16964;DHT22;8598;50.508;10.436;2023-02-21T16:36:24;11.70;99.90
16964;DHT22;8598;50.508;10.436;2023-02-21T16:38:52;11.60;99.90
16964;DHT22;8598;50.508;10.436;2023-02-21T16:41:18;11.60;99.90
16964;DHT22;8598;50.508;10.436;2023-02-21T16:43:45;11.60;99.90
16964;DHT22;8598;50.508;10.436;2023-02-21T16:46:14;11.60;99.90